Time;durP1;ratioP1;P1;durP2;ratioP2;P2;SDS_P1;SDS_P2;PMS_P1;PMS_P2;Temp;Humidity;BMP_temperature;BMP_pressure;BME280_temperature;BME280_humidity;BME280_pressure;Samples;Min_cycle;Max_cycle;Signal;HPM_P1;HPM_P2
2023/02/22 00:02:24;;;;;;;12.70;9.43;;;9.90;99.90;;;;;;5046494;28;20481;-71
2023/02/22 00:04:53;;;;;;;14.20;10.30;;;9.90;99.90;;;;;;5046909;28;20492;-71
2023/02/22 00:07:22;;;;;;;11.97;8.37;;;9.90;99.90;;;;;;5056002;28;20558;-71
2023/02/22 00:09:51;;;;;;;12.23;9.03;;;9.90;99.90;;;;;;5053168;28;20510;-71
2023/02/22 00:12:19;;;;;;;11.23;8.10;;;9.90;99.90;;;;;;5054443;28;20485;-71
2023/02/22 00:14:48;;;;;;;12.07;9.00;;;9.90;99.90;;;;;;5046477;28;20456;-71
2023/02/22 00:17:16;;;;;;;11.27;8.37;;;9.90;99.90;;;;;;5038315;28;20569;-71
2023/02/22 00:19:44;;;;;;;13.13;9.23;;;9.90;99.90;;;;;;5039248;28;20562;-71
2023/02/22 00:22:12;;;;;;;11.23;8.70;;;9.90;99.90;;;;;;5037973;28;20611;-71
2023/02/22 00:24:42;;;;;;;10.63;7.40;;;9.90;99.90;;;;;;5047554;28;20472;-71
2023/02/22 00:27:10;;;;;;;10.07;7.80;;;9.80;99.90;;;;;;5040116;28;20554;-71
2023/02/22 00:29:44;;;;;;;11.30;8.50;;;9.80;99.90;;;;;;5052810;28;20445;-71
2023/02/22 00:32:12;;;;;;;11.20;8.80;;;9.80;99.90;;;;;;5058288;28;20685;-71
2023/02/22 00:34:42;;;;;;;9.50;7.87;;;9.80;99.90;;;;;;5054475;28;20444;-71
2023/02/22 00:37:11;;;;;;;11.13;7.60;;;9.80;99.90;;;;;;5036217;28;20476;-71
2023/02/22 00:39:39;;;;;;;13.20;8.47;;;9.80;99.90;;;;;;5038523;28;20445;-71
2023/02/22 00:42:09;;;;;;;10.10;8.00;;;9.80;99.90;;;;;;5060308;28;20475;-71
2023/02/22 00:44:37;;;;;;;12.37;8.90;;;9.80;99.90;;;;;;5038719;28;20514;-71
2023/02/22 00:47:07;;;;;;;11.53;8.10;;;9.80;99.90;;;;;;5056220;28;20556;-71
2023/02/22 00:49:36;;;;;;;10.13;7.63;;;9.90;99.90;;;;;;5041452;28;20464;-71
2023/02/22 00:52:06;;;;;;;9.90;7.90;;;9.80;99.90;;;;;;5056306;28;20542;-71
2023/02/22 00:54:35;;;;;;;10.10;8.00;;;9.90;99.90;;;;;;5046320;28;20480;-71
2023/02/22 00:57:04;;;;;;;9.93;7.60;;;9.90;99.90;;;;;;5046087;28;20529;-70
2023/02/22 00:59:33;;;;;;;8.50;7.50;;;9.90;99.90;;;;;;5055062;28;20533;-71
2023/02/22 01:02:01;;;;;;;9.07;6.93;;;9.80;99.90;;;;;;5060878;28;20475;-71
2023/02/22 01:04:30;;;;;;;10.33;7.00;;;9.80;99.90;;;;;;5054563;28;20457;-71
2023/02/22 01:06:59;;;;;;;10.40;8.13;;;9.80;99.90;;;;;;5057953;28;20559;-71
2023/02/22 01:09:28;;;;;;;10.20;7.13;;;9.80;99.90;;;;;;5040301;28;20446;-71
2023/02/22 01:11:56;;;;;;;12.60;9.33;;;9.80;99.90;;;;;;5043936;28;20525;-71
2023/02/22 01:14:26;;;;;;;8.57;6.47;;;9.80;99.90;;;;;;5043537;28;20535;-71
2023/02/22 01:16:57;;;;;;;9.37;7.23;;;9.80;99.90;;;;;;5047278;28;20471;-71
2023/02/22 01:19:25;;;;;;;8.80;6.87;;;9.80;99.90;;;;;;5062865;28;20449;-71
2023/02/22 01:21:54;;;;;;;7.40;6.63;;;9.80;99.90;;;;;;5049987;28;20492;-71
2023/02/22 01:24:22;;;;;;;10.33;7.60;;;9.80;99.90;;;;;;5040076;28;20425;-71
2023/02/22 01:26:52;;;;;;;9.30;6.90;;;9.80;99.90;;;;;;5062404;28;20556;-71
2023/02/22 01:29:21;;;;;;;8.50;6.90;;;9.80;99.90;;;;;;5046107;28;20989;-71
2023/02/22 01:31:54;;;;;;;7.57;6.53;;;9.80;99.90;;;;;;5064327;28;20500;-71
2023/02/22 01:34:25;;;;;;;7.40;5.70;;;9.80;99.90;;;;;;5043165;28;20545;-71
2023/02/22 01:36:53;;;;;;;8.90;6.50;;;9.80;99.90;;;;;;5047555;28;20459;-71
2023/02/22 01:39:23;;;;;;;8.27;6.90;;;9.80;99.90;;;;;;5043177;28;20453;-71
2023/02/22 01:41:52;;;;;;;10.07;7.10;;;9.80;99.90;;;;;;5049998;28;20976;-71
2023/02/22 01:44:28;;;;;;;7.90;6.40;;;9.80;99.90;;;;;;5037560;28;20445;-72
2023/02/22 01:47:00;;;;;;;8.50;6.00;;;9.80;99.90;;;;;;5047106;28;20467;-71
2023/02/22 01:49:39;;;;;;;8.13;5.90;;;9.80;99.90;;;;;;5032105;28;20447;-71
2023/02/22 01:52:11;;;;;;;7.23;5.67;;;9.80;99.90;;;;;;5046711;28;20440;-71
2023/02/22 01:54:46;;;;;;;7.47;6.70;;;9.80;99.90;;;;;;5047650;28;20444;-71
2023/02/22 01:57:20;;;;;;;7.60;6.60;;;9.80;99.90;;;;;;5059409;28;20504;-71
2023/02/22 01:59:50;;;;;;;8.80;6.27;;;9.80;99.90;;;;;;5063205;28;20526;-71
2023/02/22 02:02:23;;;;;;;7.70;5.83;;;9.80;99.90;;;;;;5048343;28;20465;-71
2023/02/22 02:04:58;;;;;;;8.50;5.90;;;9.80;99.90;;;;;;5047744;28;21153;-71
2023/02/22 02:07:28;;;;;;;8.07;5.70;;;9.80;99.90;;;;;;5060852;28;20870;-71
2023/02/22 02:09:59;;;;;;;7.13;5.70;;;9.80;99.90;;;;;;5048478;28;20449;-71
2023/02/22 02:12:31;;;;;;;7.37;5.63;;;9.80;99.90;;;;;;5047727;28;20464;-72
2023/02/22 02:15:18;;;;;;;6.83;4.60;;;9.80;99.90;;;;;;5063055;28;20560;-71
2023/02/22 02:17:48;;;;;;;7.93;5.83;;;9.80;99.90;;;;;;5062320;28;20521;-71
2023/02/22 02:20:27;;;;;;;6.03;5.00;;;9.80;99.90;;;;;;5048375;28;20477;-71
2023/02/22 02:23:05;;;;;;;5.47;4.30;;;9.80;99.90;;;;;;5046582;28;20506;-71
2023/02/22 02:26:05;;;;;;;5.90;4.97;;;9.80;99.90;;;;;;5060413;28;20483;-72
2023/02/22 02:29:11;;;;;;;6.47;5.77;;;9.80;99.90;;;;;;5051699;28;20481;-71
2023/02/22 02:32:22;;;;;;;5.70;5.20;;;9.80;99.90;;;;;;5041937;28;20780;-71
2023/02/22 02:35:00;;;;;;;5.63;5.00;;;9.80;99.90;;;;;;5067955;28;20450;-71
2023/02/22 02:37:40;;;;;;;6.10;4.90;;;9.80;99.90;;;;;;5064542;28;20974;-71
2023/02/22 02:40:19;;;;;;;8.20;6.00;;;9.80;99.90;;;;;;5060153;28;20622;-71
2023/02/22 02:42:57;;;;;;;5.50;4.70;;;9.80;99.90;;;;;;5045936;28;20513;-71
2023/02/22 02:45:30;;;;;;;5.93;5.10;;;9.80;99.90;;;;;;5047845;28;20472;-71
2023/02/22 02:48:03;;;;;;;6.10;4.97;;;9.80;99.90;;;;;;5044238;28;21149;-71
2023/02/22 02:50:36;;;;;;;5.33;4.83;;;9.80;99.90;;;;;;5038962;28;20476;-71
2023/02/22 02:53:07;;;;;;;6.60;4.87;;;9.80;99.90;;;;;;5053811;28;20485;-71
2023/02/22 02:55:36;;;;;;;5.03;4.30;;;9.80;99.90;;;;;;5060737;28;20562;-71
2023/02/22 02:58:07;;;;;;;6.50;5.20;;;9.80;99.90;;;;;;5037784;28;20494;-71
2023/02/22 03:00:40;;;;;;;6.30;5.70;;;9.80;99.90;;;;;;5063232;28;20833;-71
2023/02/22 03:03:33;;;;;;;6.17;5.30;;;9.80;99.90;;;;;;5052794;28;20971;-71
2023/02/22 03:06:18;;;;;;;5.17;4.33;;;9.80;99.90;;;;;;5052179;28;20580;-71
2023/02/22 03:08:57;;;;;;;7.03;5.50;;;9.80;99.90;;;;;;5048893;28;20555;-71
2023/02/22 03:11:30;;;;;;;6.37;4.90;;;9.80;99.90;;;;;;5054333;28;20449;-71
2023/02/22 03:14:09;;;;;;;5.30;4.77;;;9.80;99.90;;;;;;5054666;28;20501;-71
2023/02/22 03:16:46;;;;;;;6.23;4.90;;;9.80;99.90;;;;;;5054873;28;20479;-72
2023/02/22 03:19:25;;;;;;;6.17;5.17;;;9.80;99.90;;;;;;5058897;28;20962;-71
2023/02/22 03:21:58;;;;;;;4.70;3.93;;;9.70;99.90;;;;;;5058337;28;20980;-71
2023/02/22 03:24:32;;;;;;;4.97;4.47;;;9.70;99.90;;;;;;5052555;28;20451;-71
2023/02/22 03:27:08;;;;;;;4.20;3.80;;;9.70;99.90;;;;;;5054627;28;20471;-71
2023/02/22 03:29:41;;;;;;;5.17;4.67;;;9.70;99.90;;;;;;5057871;28;20446;-71
2023/02/22 03:32:15;;;;;;;7.17;4.67;;;9.70;99.90;;;;;;5058672;28;20512;-71
2023/02/22 03:34:51;;;;;;;5.10;4.10;;;9.70;99.90;;;;;;5048884;28;20453;-71
2023/02/22 03:37:25;;;;;;;4.53;4.13;;;9.70;99.90;;;;;;5049959;28;20461;-71
2023/02/22 03:39:56;;;;;;;6.30;4.93;;;9.70;99.90;;;;;;5034785;28;20504;-71
2023/02/22 03:42:29;;;;;;;4.10;3.60;;;9.70;99.90;;;;;;5047000;28;20478;-71
2023/02/22 03:45:03;;;;;;;5.53;4.20;;;9.70;99.90;;;;;;5060139;28;20456;-71
2023/02/22 03:47:39;;;;;;;4.83;3.93;;;9.70;99.90;;;;;;5046609;28;20471;-71
2023/02/22 03:50:14;;;;;;;6.00;4.00;;;9.70;99.90;;;;;;5043588;28;20527;-72
2023/02/22 03:52:46;;;;;;;5.57;4.90;;;9.70;99.90;;;;;;5058498;28;20466;-71
2023/02/22 03:55:22;;;;;;;3.87;3.57;;;9.70;99.90;;;;;;5044548;28;20468;-71
2023/02/22 03:57:56;;;;;;;5.50;4.70;;;9.70;99.90;;;;;;5061773;28;20976;-71
2023/02/22 04:00:28;;;;;;;4.80;4.30;;;9.70;99.90;;;;;;5030485;28;20982;-71
2023/02/22 04:02:57;;;;;;;4.10;3.63;;;9.70;99.90;;;;;;5046788;28;20465;-71
2023/02/22 04:05:27;;;;;;;4.50;4.03;;;9.70;99.90;;;;;;5047333;28;20468;-71
2023/02/22 04:07:57;;;;;;;4.50;3.83;;;9.70;99.90;;;;;;5043943;28;20902;-71
2023/02/22 04:10:27;;;;;;;5.20;4.37;;;9.70;99.90;;;;;;5042017;28;21111;-72
2023/02/22 04:12:56;;;;;;;4.40;4.00;;;9.70;99.90;;;;;;5044622;28;20483;-71
2023/02/22 04:15:25;;;;;;;4.83;4.33;;;9.70;99.90;;;;;;5039201;28;20450;-72
2023/02/22 04:17:59;;;;;;;4.20;3.77;;;9.70;99.90;;;;;;5051520;28;20502;-71
2023/02/22 04:20:30;;;;;;;4.73;4.20;;;9.70;99.90;;;;;;5044932;28;20437;-71
2023/02/22 04:23:04;;;;;;;5.10;4.60;;;9.70;99.90;;;;;;5065015;28;20484;-72
2023/02/22 04:25:32;;;;;;;5.97;4.03;;;9.70;99.90;;;;;;5035951;28;20545;-71
2023/02/22 04:28:12;;;;;;;3.83;3.50;;;9.60;99.90;;;;;;5055847;28;21027;-72
2023/02/22 04:30:49;;;;;;;4.63;4.23;;;9.70;99.90;;;;;;5056503;28;20430;-72
2023/02/22 04:33:19;;;;;;;5.17;4.63;;;9.70;99.90;;;;;;5041541;28;20473;-72
2023/02/22 04:35:50;;;;;;;5.07;3.90;;;9.70;99.90;;;;;;5028453;28;20468;-72
2023/02/22 04:38:18;;;;;;;4.07;3.67;;;9.60;99.90;;;;;;5048837;28;20533;-71
2023/02/22 04:40:48;;;;;;;4.43;3.73;;;9.60;99.90;;;;;;5042887;28;20949;-72
2023/02/22 04:43:17;;;;;;;4.40;4.00;;;9.70;99.90;;;;;;5042425;28;20476;-72
2023/02/22 04:45:47;;;;;;;4.33;3.93;;;9.70;99.90;;;;;;5030323;28;20450;-72
2023/02/22 04:48:16;;;;;;;4.73;3.93;;;9.60;99.90;;;;;;5065698;28;20468;-72
2023/02/22 04:50:44;;;;;;;5.17;4.67;;;9.70;99.90;;;;;;5054907;28;20489;-72
2023/02/22 04:53:15;;;;;;;4.50;3.43;;;9.60;99.90;;;;;;5045695;28;20845;-71
2023/02/22 04:55:43;;;;;;;4.53;4.00;;;9.60;99.90;;;;;;5052262;28;20464;-72
2023/02/22 04:58:12;;;;;;;6.10;3.90;;;9.60;99.90;;;;;;5066828;28;20472;-72
2023/02/22 05:00:40;;;;;;;4.53;4.03;;;9.60;99.90;;;;;;5070645;28;20527;-72
2023/02/22 05:03:09;;;;;;;3.80;3.33;;;9.60;99.90;;;;;;5049514;28;20490;-72
2023/02/22 05:05:37;;;;;;;4.87;4.20;;;9.60;99.90;;;;;;5054958;28;20472;-72
2023/02/22 05:08:06;;;;;;;4.47;3.40;;;9.60;99.90;;;;;;5051450;28;20490;-71
2023/02/22 05:10:36;;;;;;;4.47;3.93;;;9.60;99.90;;;;;;5049325;28;20462;-71
2023/02/22 05:13:05;;;;;;;5.43;4.33;;;9.60;99.90;;;;;;5048181;28;20561;-72
2023/02/22 05:15:33;;;;;;;4.57;3.33;;;9.60;99.90;;;;;;5053748;28;20460;-71
2023/02/22 05:18:01;;;;;;;4.20;3.40;;;9.60;99.90;;;;;;5067495;28;20570;-72
2023/02/22 05:20:32;;;;;;;3.60;3.30;;;9.60;99.90;;;;;;5068894;28;20449;-72
2023/02/22 05:23:02;;;;;;;3.80;3.40;;;9.60;99.90;;;;;;5042204;28;20489;-72
2023/02/22 05:25:32;;;;;;;4.07;3.67;;;9.60;99.90;;;;;;5069247;28;20484;-72
2023/02/22 05:28:03;;;;;;;4.20;3.70;;;9.60;99.90;;;;;;5051011;28;21158;-71
2023/02/22 05:30:34;;;;;;;5.37;4.87;;;9.60;99.90;;;;;;5057660;28;20430;-71
2023/02/22 05:33:02;;;;;;;4.17;3.50;;;9.60;99.90;;;;;;5064377;28;20568;-71
2023/02/22 05:35:31;;;;;;;4.73;3.83;;;9.60;99.90;;;;;;5057074;28;20526;-71
2023/02/22 05:38:02;;;;;;;4.10;3.70;;;9.60;99.90;;;;;;5050157;28;20516;-71
2023/02/22 05:40:31;;;;;;;4.67;3.60;;;9.60;99.90;;;;;;5047196;28;20440;-71
2023/02/22 05:43:01;;;;;;;5.80;4.27;;;9.60;99.90;;;;;;5050192;28;20558;-73
2023/02/22 05:45:30;;;;;;;4.73;3.90;;;9.60;99.90;;;;;;5041998;28;21033;-73
2023/02/22 05:47:59;;;;;;;4.90;4.43;;;9.50;99.90;;;;;;5050871;28;20484;-73
2023/02/22 05:50:28;;;;;;;4.90;4.40;;;9.50;99.90;;;;;;5055563;28;20452;-73
2023/02/22 05:52:56;;;;;;;3.53;3.23;;;9.50;99.90;;;;;;5053433;28;20467;-73
2023/02/22 05:55:25;;;;;;;4.80;4.23;;;9.50;99.90;;;;;;5069051;28;20997;-73
2023/02/22 05:57:53;;;;;;;4.27;3.87;;;9.50;99.90;;;;;;5047176;28;20477;-73
2023/02/22 06:00:26;;;;;;;4.27;3.80;;;9.50;99.90;;;;;;5054711;28;20515;-73
2023/02/22 06:02:55;;;;;;;3.77;3.40;;;9.50;99.90;;;;;;5060566;28;20524;-73
2023/02/22 06:05:24;;;;;;;4.03;3.03;;;9.50;99.90;;;;;;5057665;28;20833;-73
2023/02/22 06:07:53;;;;;;;4.30;3.90;;;9.40;99.90;;;;;;5051955;28;20560;-73
2023/02/22 06:10:23;;;;;;;4.60;4.10;;;9.50;99.90;;;;;;5039969;28;20506;-73
2023/02/22 06:12:53;;;;;;;5.03;3.77;;;9.50;99.90;;;;;;5064219;28;20464;-71
2023/02/22 06:15:25;;;;;;;4.80;4.10;;;9.50;99.90;;;;;;5041172;28;20477;-72
2023/02/22 06:17:55;;;;;;;4.20;3.30;;;9.50;99.90;;;;;;5058070;28;20775;-72
2023/02/22 06:20:26;;;;;;;4.03;3.60;;;9.40;99.90;;;;;;5050705;28;20447;-72
2023/02/22 06:22:57;;;;;;;4.90;4.00;;;9.40;99.90;;;;;;5066494;28;20469;-71
2023/02/22 06:25:29;;;;;;;3.70;3.40;;;9.40;99.90;;;;;;5050313;28;20556;-71
2023/02/22 06:27:59;;;;;;;4.10;3.47;;;9.40;99.90;;;;;;5077702;22;20475;-45
2023/02/22 06:30:31;;;;;;;3.83;2.87;;;9.40;99.90;;;;;;5068764;28;20450;-43
2023/02/22 06:33:01;;;;;;;4.10;3.40;;;9.50;99.90;;;;;;5080639;28;20560;-44
2023/02/22 06:35:31;;;;;;;4.67;3.80;;;9.50;99.90;;;;;;5050685;28;20511;-47
2023/02/22 06:38:01;;;;;;;3.50;3.20;;;9.50;99.90;;;;;;5038696;28;20482;-46
2023/02/22 06:40:30;;;;;;;3.30;3.00;;;9.40;99.90;;;;;;5064307;28;20440;-46
2023/02/22 06:42:59;;;;;;;4.67;3.70;;;9.50;99.90;;;;;;5058121;28;20478;-47
2023/02/22 07:26:05;;;;;;;5.47;3.80;;;9.30;99.90;;;;;;4986714;28;20544;-48
2023/02/22 07:28:34;;;;;;;3.33;3.00;;;9.30;99.90;;;;;;5045367;28;20475;-48
2023/02/22 07:31:03;;;;;;;5.10;3.73;;;9.30;99.90;;;;;;5068483;28;20434;-45
2023/02/22 07:33:32;;;;;;;5.17;4.67;;;9.30;99.90;;;;;;5064998;28;20488;-44
2023/02/22 07:36:01;;;;;;;4.20;3.80;;;9.20;99.90;;;;;;5057382;28;20996;-45
2023/02/22 07:38:30;;;;;;;4.90;3.80;;;9.20;99.90;;;;;;5054228;28;20484;-46
2023/02/22 07:40:58;;;;;;;4.47;4.07;;;9.20;99.90;;;;;;5056321;28;20447;-46
2023/02/22 07:43:30;;;;;;;4.77;3.90;;;9.20;99.90;;;;;;5049515;28;20978;-46
2023/02/22 07:46:01;;;;;;;6.80;4.43;;;9.10;99.90;;;;;;5055048;28;20858;-45
2023/02/22 07:48:32;;;;;;;6.07;4.27;;;9.10;99.90;;;;;;5066262;28;21002;-47
2023/02/22 07:51:04;;;;;;;4.17;3.83;;;9.10;99.90;;;;;;5057503;28;20467;-47
2023/02/22 07:53:33;;;;;;;4.70;4.20;;;9.10;99.90;;;;;;5051513;28;20476;-46
2023/02/22 07:56:04;;;;;;;6.03;4.50;;;9.10;99.90;;;;;;5065723;28;20484;-45
2023/02/22 07:58:35;;;;;;;4.17;3.73;;;9.10;99.90;;;;;;5048551;28;20478;-45
2023/02/22 08:01:07;;;;;;;4.87;4.43;;;9.10;99.90;;;;;;5065311;28;20546;-46
2023/02/22 08:03:37;;;;;;;5.00;4.40;;;9.10;99.90;;;;;;5064780;28;20578;-45
2023/02/22 08:06:07;;;;;;;5.57;4.30;;;9.10;99.90;;;;;;5051826;28;20498;-45
2023/02/22 08:08:37;;;;;;;4.50;3.20;;;9.10;99.90;;;;;;5053114;28;20476;-46
2023/02/22 08:11:06;;;;;;;5.63;3.73;;;9.10;99.90;;;;;;5048664;28;20942;-46
2023/02/22 08:13:37;;;;;;;3.47;3.17;;;9.10;99.90;;;;;;5069452;28;20850;-48
2023/02/22 08:16:06;;;;;;;4.60;3.97;;;9.10;99.90;;;;;;5044841;28;20461;-45
2023/02/22 08:18:39;;;;;;;4.40;4.00;;;9.20;99.90;;;;;;5064774;28;20983;-45
2023/02/22 08:21:09;;;;;;;5.30;3.57;;;9.20;99.90;;;;;;5049586;28;21210;-45
2023/02/22 08:23:38;;;;;;;3.23;2.63;;;9.20;99.90;;;;;;5071522;28;20479;-45
2023/02/22 08:26:09;;;;;;;4.00;3.07;;;9.20;99.90;;;;;;5046939;28;20449;-46
2023/02/22 08:33:24;;;;;;;4.87;3.90;;;9.20;99.90;;;;;;5062142;28;20521;-46
2023/02/22 08:35:57;;;;;;;5.60;4.27;;;9.20;99.90;;;;;;5059623;28;20437;-45
2023/02/22 08:38:30;;;;;;;5.80;4.10;;;9.20;99.90;;;;;;5042691;28;20508;-46
2023/02/22 08:41:00;;;;;;;4.27;3.87;;;9.30;99.90;;;;;;5050564;28;20448;-46
2023/02/22 08:43:30;;;;;;;4.00;3.20;;;9.30;99.90;;;;;;5048455;28;21043;-45
2023/02/22 08:45:59;;;;;;;3.13;2.93;;;9.30;99.90;;;;;;5069742;28;20536;-45
2023/02/22 08:48:37;;;;;;;4.20;3.57;;;9.30;99.90;;;;;;5052805;28;20486;-46
2023/02/22 08:51:31;;;;;;;3.60;3.30;;;9.30;99.90;;;;;;5042541;28;20479;-45
2023/02/22 08:54:07;;;;;;;3.17;2.97;;;9.30;99.90;;;;;;5051263;28;20574;-46
2023/02/22 08:56:39;;;;;;;3.70;3.40;;;9.30;99.90;;;;;;5040838;28;20962;-45
2023/02/22 08:59:10;;;;;;;4.70;3.20;;;9.30;99.90;;;;;;5044782;28;20448;-45
2023/02/22 09:16:21;;;;;;;2.87;2.57;;;9.30;99.90;;;;;;5062072;28;20436;-46
2023/02/22 10:19:38;;;;;;;2.73;2.07;;;9.40;99.90;;;;;;5056517;28;20830;-72
2023/02/22 10:22:59;;;;;;;3.70;2.60;;;9.40;99.90;;;;;;5041976;28;21139;-72
2023/02/22 10:25:35;;;;;;;3.77;2.93;;;9.40;99.90;;;;;;5064135;28;20822;-73
2023/02/22 10:28:15;;;;;;;3.40;3.10;;;9.30;99.90;;;;;;5024168;28;20516;-73
2023/02/22 10:30:53;;;;;;;4.67;2.90;;;9.40;99.90;;;;;;5037616;28;20444;-73
2023/02/22 10:33:28;;;;;;;4.10;3.10;;;9.40;99.90;;;;;;5043023;28;20480;-73
2023/02/22 10:36:05;;;;;;;3.17;2.53;;;9.40;99.90;;;;;;5044313;28;20879;-73
2023/02/22 10:38:38;;;;;;;2.70;2.50;;;9.40;99.90;;;;;;5044458;28;20580;-71
2023/02/22 10:41:23;;;;;;;3.67;3.30;;;9.40;99.90;;;;;;5049739;28;20480;-71
2023/02/22 10:43:52;;;;;;;3.60;2.50;;;9.40;99.90;;;;;;5036297;28;20562;-71
2023/02/22 10:46:23;;;;;;;3.90;2.80;;;9.40;99.90;;;;;;5043629;28;20570;-71
2023/02/22 10:48:54;;;;;;;3.27;2.80;;;9.40;99.90;;;;;;5046904;28;20477;-71
2023/02/22 10:51:25;;;;;;;2.90;2.17;;;9.40;99.90;;;;;;5050311;28;20481;-71
2023/02/22 10:54:03;;;;;;;3.60;2.47;;;9.40;99.90;;;;;;5030426;28;20441;-71
2023/02/22 10:56:31;;;;;;;3.20;2.80;;;9.40;99.90;;;;;;5044805;28;21173;-71
2023/02/22 10:59:03;;;;;;;2.53;2.27;;;9.40;99.90;;;;;;5033984;28;20444;-71
2023/02/22 11:01:36;;;;;;;3.20;2.70;;;9.40;99.90;;;;;;5065420;22;20817;-73
2023/02/22 11:04:13;;;;;;;3.37;3.03;;;9.40;99.90;;;;;;5070118;28;20523;-72
2023/02/22 11:06:45;;;;;;;4.20;3.10;;;9.40;99.90;;;;;;5085481;28;20491;-72
2023/02/22 11:09:16;;;;;;;7.83;5.47;;;9.40;99.90;;;;;;5099306;28;20698;-71
2023/02/22 11:11:47;;;;;;;4.70;3.97;;;9.40;99.90;;;;;;5078437;28;20940;-72
2023/02/22 11:14:27;;;;;;;5.20;4.70;;;9.40;99.90;;;;;;5079032;28;20506;-70
2023/02/22 11:16:58;;;;;;;6.07;5.33;;;9.50;99.90;;;;;;5092302;28;20468;-71
2023/02/22 11:19:28;;;;;;;6.30;5.70;;;9.50;99.90;;;;;;5075504;28;20443;-72
2023/02/22 11:22:09;;;;;;;6.50;5.63;;;9.50;99.90;;;;;;5074271;28;20448;-72
2023/02/22 11:24:45;;;;;;;4.93;4.43;;;9.50;99.90;;;;;;5071847;28;20827;-72
2023/02/22 11:27:28;;;;;;;5.20;4.70;;;9.50;99.90;;;;;;5078706;28;20553;-72
2023/02/22 11:30:08;;;;;;;6.23;5.63;;;9.40;99.90;;;;;;5072407;28;20467;-72
2023/02/22 11:32:43;;;;;;;4.93;4.40;;;9.50;99.90;;;;;;5072810;28;20469;-72
2023/02/22 11:35:29;;;;;;;5.10;4.40;;;9.40;99.90;;;;;;5075735;28;20455;-70
2023/02/22 11:38:16;;;;;;;4.73;4.03;;;9.40;99.90;;;;;;5077652;28;20464;-71
2023/02/22 11:40:46;;;;;;;5.07;4.60;;;9.40;99.90;;;;;;5080441;28;20476;-72
2023/02/22 11:43:20;;;;;;;4.20;3.80;;;9.40;99.90;;;;;;5073547;28;20540;-72
2023/02/22 11:46:01;;;;;;;5.40;4.90;;;9.40;99.90;;;;;;5072100;28;20578;-71
2023/02/22 11:48:33;;;;;;;4.70;4.17;;;9.40;99.90;;;;;;5067807;28;20643;-72
2023/02/22 11:51:14;;;;;;;5.00;4.50;;;9.40;99.90;;;;;;5082903;28;20819;-72
2023/02/22 11:54:18;;;;;;;4.90;4.40;;;9.40;99.90;;;;;;5082659;28;20886;-72
2023/02/22 11:56:51;;;;;;;3.87;3.57;;;9.40;99.90;;;;;;5082010;28;20491;-72
2023/02/22 11:59:29;;;;;;;5.40;4.90;;;9.40;99.90;;;;;;5075050;28;20438;-72
2023/02/22 12:02:01;;;;;;;5.20;4.30;;;9.40;99.90;;;;;;5067862;28;21092;-72
2023/02/22 12:04:48;;;;;;;4.37;3.97;;;9.40;99.90;;;;;;5074072;28;20447;-72
2023/02/22 12:07:35;;;;;;;4.40;3.93;;;9.40;99.90;;;;;;5063077;28;20536;-72
2023/02/22 12:10:17;;;;;;;6.17;5.13;;;9.40;99.90;;;;;;5072682;28;20474;-71
2023/02/22 12:13:03;;;;;;;4.00;3.70;;;9.40;99.90;;;;;;5081521;28;20571;-71
2023/02/22 12:15:39;;;;;;;5.30;3.63;;;9.40;99.90;;;;;;5076287;28;20500;-72
2023/02/22 12:18:19;;;;;;;4.67;4.23;;;9.40;99.90;;;;;;5075540;28;20928;-72
2023/02/22 12:20:56;;;;;;;3.87;3.57;;;9.40;99.90;;;;;;5080671;28;20809;-71
2023/02/22 12:23:30;;;;;;;5.40;4.43;;;9.40;99.90;;;;;;5075402;28;20468;-71
2023/02/22 12:26:05;;;;;;;4.33;3.93;;;9.40;99.90;;;;;;5074846;28;20452;-71
2023/02/22 12:28:38;;;;;;;4.07;3.77;;;9.40;99.90;;;;;;5068366;28;20519;-71
2023/02/22 12:31:21;;;;;;;4.63;4.23;;;9.40;99.90;;;;;;5082944;28;21051;-71
2023/02/22 12:33:58;;;;;;;4.23;3.83;;;9.40;99.90;;;;;;5077996;28;20464;-71
2023/02/22 12:36:34;;;;;;;6.10;3.70;;;9.40;99.90;;;;;;5092821;28;20466;-71
2023/02/22 12:39:12;;;;;;;3.90;3.60;;;9.40;99.90;;;;;;5078565;28;20441;-71
2023/02/22 12:41:48;;;;;;;5.37;3.57;;;9.40;99.90;;;;;;5073004;28;20473;-71
2023/02/22 12:44:21;;;;;;;4.30;3.90;;;9.40;99.90;;;;;;5076176;28;20444;-71
2023/02/22 12:46:52;;;;;;;4.50;4.10;;;9.40;99.90;;;;;;5071178;28;20468;-71
2023/02/22 12:49:30;;;;;;;3.40;3.10;;;9.50;99.90;;;;;;5075981;28;20435;-71
2023/02/22 12:52:06;;;;;;;3.80;3.33;;;9.40;99.90;;;;;;5061608;28;20456;-71
2023/02/22 12:54:55;;;;;;;4.40;4.00;;;9.50;99.90;;;;;;5076974;28;20533;-71
2023/02/22 12:57:35;;;;;;;4.50;4.10;;;9.50;99.90;;;;;;5070257;28;21052;-71
2023/02/22 13:00:11;;;;;;;3.70;3.40;;;9.50;99.90;;;;;;5066124;28;20444;-71
2023/02/22 13:02:45;;;;;;;4.30;3.50;;;9.50;99.90;;;;;;5078757;28;20737;-71
2023/02/22 13:05:16;;;;;;;3.93;3.63;;;9.50;99.90;;;;;;5074914;28;20474;-71
2023/02/22 13:07:53;;;;;;;3.60;3.30;;;9.50;99.90;;;;;;5070435;28;20468;-71
2023/02/22 13:10:50;;;;;;;4.97;4.10;;;9.50;99.90;;;;;;5072949;28;20462;-71
2023/02/22 13:13:27;;;;;;;4.03;3.53;;;9.50;99.90;;;;;;5079168;28;20453;-72
2023/02/22 13:16:03;;;;;;;3.60;3.30;;;9.50;99.90;;;;;;5071685;28;20466;-72
2023/02/22 13:18:43;;;;;;;4.07;3.33;;;9.50;99.90;;;;;;5080114;28;20839;-72
2023/02/22 13:21:16;;;;;;;3.80;3.43;;;9.50;99.90;;;;;;5080882;28;20962;-72
2023/02/22 13:23:52;;;;;;;4.20;3.63;;;9.50;99.90;;;;;;5085848;28;20895;-71
2023/02/22 13:26:28;;;;;;;4.10;3.70;;;9.50;99.90;;;;;;5074929;28;20612;-71
2023/02/22 13:29:04;;;;;;;6.40;3.60;;;9.50;99.90;;;;;;5084026;28;20466;-72
2023/02/22 13:32:01;;;;;;;4.30;3.10;;;9.50;99.90;;;;;;5075670;28;20502;-71
2023/02/22 13:34:47;;;;;;;7.47;3.17;;;9.50;99.90;;;;;;5083083;28;20436;-70
2023/02/22 13:37:35;;;;;;;3.67;3.30;;;9.50;99.90;;;;;;5071321;28;20481;-71
2023/02/22 13:40:30;;;;;;;4.80;4.20;;;9.50;99.90;;;;;;5082787;28;20444;-71
2023/02/22 13:43:13;;;;;;;4.63;3.77;;;9.50;99.90;;;;;;5079889;28;20506;-71
2023/02/22 13:46:20;;;;;;;3.63;3.33;;;9.50;99.90;;;;;;5078400;28;20456;-71
2023/02/22 13:49:28;;;;;;;3.43;3.13;;;9.50;99.90;;;;;;5073793;28;20463;-71
2023/02/22 13:51:59;;;;;;;3.97;3.67;;;9.50;99.90;;;;;;5062411;28;20460;-71
2023/02/22 13:54:36;;;;;;;4.50;3.90;;;9.50;99.90;;;;;;5074678;28;20429;-71
2023/02/22 13:57:18;;;;;;;3.47;3.27;;;9.60;99.90;;;;;;5066542;28;20464;-71
2023/02/22 13:59:47;;;;;;;3.87;3.53;;;9.60;99.90;;;;;;5077024;28;20484;-71
2023/02/22 14:02:54;;;;;;;4.37;3.97;;;9.60;99.90;;;;;;5082619;28;20987;-71
2023/02/22 14:05:51;;;;;;;3.53;3.23;;;9.60;99.90;;;;;;5075713;28;20786;-71
2023/02/22 14:08:48;;;;;;;2.87;2.67;;;9.60;99.90;;;;;;5075648;28;20468;-71
2023/02/22 14:11:55;;;;;;;3.50;3.20;;;9.60;99.90;;;;;;5069852;28;20487;-71
2023/02/22 14:14:24;;;;;;;4.03;3.63;;;9.60;99.90;;;;;;4980703;28;20514;-71
2023/02/22 14:17:29;;;;;;;4.03;3.63;;;9.60;99.90;;;;;;4988059;28;20480;-71
2023/02/22 14:20:31;;;;;;;3.90;3.50;;;9.60;99.90;;;;;;4995455;28;20724;-71
2023/02/22 14:23:28;;;;;;;3.50;3.17;;;9.60;99.90;;;;;;4988163;28;21028;-71
2023/02/22 14:26:13;;;;;;;4.17;3.77;;;9.60;99.90;;;;;;5021023;28;20877;-71
2023/02/22 14:28:52;;;;;;;5.00;3.53;;;9.60;99.90;;;;;;5069564;28;20484;-71
2023/02/22 14:31:22;;;;;;;3.60;3.03;;;9.60;99.90;;;;;;5063721;28;20492;-71
2023/02/22 14:34:10;;;;;;;4.23;3.80;;;9.60;99.90;;;;;;5085031;28;20465;-71
2023/02/22 14:36:49;;;;;;;4.00;3.70;;;9.60;99.90;;;;;;5068219;28;20475;-71
2023/02/22 14:39:24;;;;;;;4.40;4.00;;;9.60;99.90;;;;;;5079010;28;20479;-71
2023/02/22 14:42:00;;;;;;;3.63;3.30;;;9.60;99.90;;;;;;5072898;28;20577;-71
2023/02/22 14:44:33;;;;;;;3.83;3.07;;;9.60;99.90;;;;;;5074531;28;20435;-71
2023/02/22 14:47:04;;;;;;;3.50;3.03;;;9.60;99.90;;;;;;5070548;28;21038;-71
2023/02/22 14:49:38;;;;;;;4.30;3.77;;;9.60;99.90;;;;;;5074960;28;20794;-71
2023/02/22 14:52:18;;;;;;;4.30;3.90;;;9.60;99.90;;;;;;5067671;28;20468;-71
2023/02/22 14:54:58;;;;;;;4.70;4.30;;;9.60;99.90;;;;;;5064401;28;20439;-70
2023/02/22 14:57:37;;;;;;;3.20;2.90;;;9.60;99.90;;;;;;5073067;28;20455;-71
2023/02/22 15:00:18;;;;;;;3.53;3.23;;;9.60;99.90;;;;;;5067215;28;20470;-72
2023/02/22 15:02:49;;;;;;;3.97;3.37;;;9.60;99.90;;;;;;5071806;28;20472;-72
2023/02/22 15:05:19;;;;;;;4.57;4.17;;;9.60;99.90;;;;;;5082841;28;20816;-71
2023/02/22 15:07:55;;;;;;;3.70;3.40;;;9.60;99.90;;;;;;5066676;28;20472;-71
2023/02/22 15:10:27;;;;;;;4.43;4.03;;;9.70;99.90;;;;;;5081967;28;21060;-72
2023/02/22 15:13:08;;;;;;;5.40;4.87;;;9.70;99.90;;;;;;5072397;28;20571;-72
2023/02/22 15:15:42;;;;;;;4.40;4.00;;;9.70;99.90;;;;;;5092308;28;20459;-72
2023/02/22 15:18:29;;;;;;;5.70;4.10;;;9.70;99.90;;;;;;5076950;28;20993;-72
2023/02/22 15:21:02;;;;;;;4.50;4.10;;;9.80;99.90;;;;;;5069679;28;20451;-73
2023/02/22 15:23:43;;;;;;;4.60;4.10;;;9.80;99.90;;;;;;5069512;28;21021;-72
2023/02/22 15:26:22;;;;;;;5.17;4.50;;;9.90;99.90;;;;;;5078256;28;20556;-73
2023/02/22 15:28:55;;;;;;;4.10;3.70;;;10.00;99.90;;;;;;5076352;28;20467;-73
2023/02/22 15:31:28;;;;;;;6.00;4.77;;;10.00;99.90;;;;;;5085378;28;20573;-73
2023/02/22 15:34:08;;;;;;;4.23;3.60;;;10.00;99.90;;;;;;5078741;28;20466;-73
2023/02/22 15:36:37;;;;;;;6.83;4.20;;;10.10;99.90;;;;;;5073074;28;20474;-71